• Join FlightAware (Why Join?)
  • Login
  • US Flag 
06:22AM EDT


 

Airport Tracker/Info


-or-


 

Live Flight TrackerFlight Track Log ✈ GJS3618 ✈ 06-Apr-2013 ✈ KDEN - KMSN

Flight Track Log - Related Links

Times and Time Zones

All times are in EDT time to prevent confusion due to time zone crossing. See the GJS3618 flight status page for this flight to view local times or setup timezone preferences in your user account.

Time Position Orientation Groundspeed Altitude Reporting Facility
EDT Latitude Longitude Course Direction KTS MPH feet Rate Location/Type
12:05PM 39.9167 -104.6667 66° East 205 236 7,400  Level Denver TRACON
12:06PM 39.9500 -104.5833 62° Northeast 268 308 9,200 1,260 Climbing Denver TRACON
12:07PM 39.9500 -104.4667 90° East 331 381 10,000 600 Climbing Denver TRACON
12:09PM 39.9589 -104.3197 85° East 330 380 10,600 660 Climbing Denver Center
12:10PM 39.9681 -104.2031 84° East 324 373 11,600 1,380 Climbing Denver Center
12:11PM 40.0132 -103.7770 66° East  Level FlightAware Approximate
12:11PM 39.9783 -104.0722 84° East 338 389 13,500  Level Denver Center
12:12PM 39.9939 -103.9439 81° East 357 411 15,800 2,100 Climbing Denver Center
12:13PM 40.0144 -103.8139 78° East 369 425 17,900 1,980 Climbing Denver Center
12:14PM 40.0356 -103.6772 79° East 370 426 19,900 1,740 Climbing Denver Center
12:15PM 40.0600 -103.5361 77° East 391 450 21,600 1,560 Climbing Denver Center
12:16PM 40.0833 -103.3872 78° East 412 474 23,200 1,500 Climbing Denver Center
12:17PM 40.1086 -103.2344 78° East 425 489 24,700 1,380 Climbing Denver Center
12:18PM 40.1381 -103.0489 78° East 445 512 26,100 1,200 Climbing Denver Center
12:19PM 40.1650 -102.8833 78° East 458 527 27,200 1,020 Climbing Denver Center
12:20PM 40.1953 -102.7150 77° East 470 541 28,300 960 Climbing Denver Center
12:21PM 40.2450 -102.5469 69° East 479 551 29,300 900 Climbing Denver Center
12:22PM 40.2794 -102.3817 75° East 492 566 30,200 840 Climbing Denver Center
12:23PM 40.3164 -102.1864 76° East 496 571 31,100 840 Climbing Denver Center
12:24PM 40.3481 -102.0172 76° East 500 575 32,000 1,020 Climbing Denver Center
12:25PM 40.3867 -101.8211 75° East 499 574 33,300 1,080 Climbing Denver Center
12:26PM 40.4175 -101.6553 76° East 492 566 34,300 780 Climbing Denver Center
12:27PM 40.4531 -101.4622 76° East 489 563 35,000 300 Climbing Denver Center
12:28PM 40.4836 -101.2928 77° East 497 572 35,000  Level Denver Center
12:29PM 40.5211 -101.0992 76° East 492 566 35,000  Level Denver Center
12:30PM 40.5667 -100.9408 69° East 488 562 35,000  Level Denver Center
12:31PM 40.6175 -100.7583 70° East 481 554 35,000  Level Denver Center
12:32PM 40.6611 -100.6042 70° East 478 550 35,000  Level Denver Center
12:33PM 40.7117 -100.4228 70° East 478 550 35,000  Level Denver Center
12:34PM 40.7547 -100.2658 70° East 477 549 35,000  Level Denver Center
12:35PM 40.8036 -100.0853 70° East 471 542 35,000  Level Denver Center
12:36PM 40.8472 -99.9264 70° East 479 551 35,000  Level Denver Center
12:37PM 40.8931 -99.7586 70° East 482 555 35,000  Level Denver Center
12:39PM 40.9378 -99.5936 70° East 479 551 35,000  Level Denver Center
12:40PM 40.9817 -99.4297 70° East 475 547 35,000  Level Denver Center
12:41PM 41.0336 -99.2344 71° East 469 540 35,000  Level Denver Center
12:42PM 41.0767 -99.0714 71° East 465 535 35,000  Level Minneapolis Center
12:43PM 41.1183 -98.9100 71° East 464 534 35,000  Level Minneapolis Center
12:44PM 41.1597 -98.7486 71° East 462 532 35,000  Level Minneapolis Center
12:45PM 41.2042 -98.5831 70° East 471 542 35,000  Level Minneapolis Center
12:46PM 41.2483 -98.4078 71° East 464 534 35,000  Level Minneapolis Center
12:47PM 41.2906 -98.2442 71° East 466 536 35,000  Level Minneapolis Center
12:48PM 41.3381 -98.0550 71° East 479 551 35,000  Level Minneapolis Center
12:49PM 41.3792 -97.8864 72° East 481 554 35,000  Level Minneapolis Center
12:50PM 41.4219 -97.7186 71° East 479 551 35,000  Level Minneapolis Center
12:51PM 41.4642 -97.5508 71° East 478 550 35,000  Level Minneapolis Center
12:52PM 41.5053 -97.3808 72° East 480 552 35,000  Level Minneapolis Center
12:53PM 41.5472 -97.2081 72° East 486 559 35,000  Level Minneapolis Center
12:54PM 41.5886 -97.0361 72° East 487 560 35,000  Level Minneapolis Center
12:55PM 41.6378 -96.8281 72° East 488 562 35,000  Level Minneapolis Center
12:56PM 41.6800 -96.6575 72° East 483 556 35,000  Level Minneapolis Center
12:57PM 41.7189 -96.4881 73° East 477 549 35,000  Level Minneapolis Center
12:58PM 41.7581 -96.3219 72° East 469 540 35,000  Level Minneapolis Center
12:59PM 41.7967 -96.1536 73° East 467 537 35,000  Level Minneapolis Center
01:00PM 41.8350 -95.9889 73° East 463 533 35,000  Level Minneapolis Center
01:01PM 41.8728 -95.8208 73° East 466 536 35,000  Level Minneapolis Center
01:02PM 41.9122 -95.6508 73° East 473 544 35,000  Level Minneapolis Center
01:03PM 41.9500 -95.4808 73° East 469 540 35,000  Level Minneapolis Center
01:04PM 41.9936 -95.2861 73° East 459 528 35,000  Level Minneapolis Center
01:06PM 42.0369 -95.0900 73° East 457 526 35,000  Level Minneapolis Center
01:07PM 42.0717 -94.9281 74° East 452 520 35,000  Level Minneapolis Center
01:08PM 42.1069 -94.7656 74° East 451 519 35,000  Level Minneapolis Center
01:09PM 42.1417 -94.6039 74° East 450 518 35,000  Level Minneapolis Center
01:10PM 42.1769 -94.4444 73° East 447 514 35,000  Level Minneapolis Center
01:11PM 42.2103 -94.2825 74° East 448 516 35,000  Level Minneapolis Center
01:12PM 42.2478 -94.1092 74° East 449 517 35,000  Level Minneapolis Center
01:13PM 42.2811 -93.9475 74° East 451 519 35,000  Level Minneapolis Center
01:14PM 42.3147 -93.7825 75° East 457 526 35,000  Level Minneapolis Center
01:15PM 42.3497 -93.6189 74° East 456 525 35,000  Level Minneapolis Center
01:16PM 42.3856 -93.4533 74° East 460 529 35,000  Level Minneapolis Center
01:17PM 42.4242 -93.2531 75° East 462 532 35,000  Level Minneapolis Center
01:18PM 42.4578 -93.0853 75° East 464 534 35,000  Level Minneapolis Center
01:19PM 42.4919 -92.9181 74° East 465 535 35,000  Level Minneapolis Center
01:20PM 42.5242 -92.7492 75° East 467 537 35,000  Level Minneapolis Center
01:21PM 42.5581 -92.5806 75° East 468 539 35,000 -60 Level Minneapolis Center
01:22PM 42.5981 -92.3753 75° East 471 542 34,900 -540 Descending Minneapolis Center
01:23PM 42.6308 -92.2053 75° East 470 541 33,900 -960 Descending Minneapolis Center
01:24PM 42.6628 -92.0353 76° East 469 540 33,000 -1,140 Descending Minneapolis Center
01:25PM 42.6956 -91.8619 76° East 473 544 31,600 -1,440 Descending Minneapolis Center
01:26PM 42.7325 -91.6653 76° East 490 564 30,100 -1,860 Descending Minneapolis Center
01:27PM 42.7669 -91.4842 75° East 475 547 27,900 -1,860 Descending Minneapolis Center
01:28PM 42.7947 -91.3269 76° East 464 534 26,300 -1,560 Descending Minneapolis Center
01:29PM 42.8131 -91.2300 76° East 453 521 25,300 -1,920 Descending Chicago Center
01:30PM 42.8425 -91.0697 76° East 442 509 23,200 -2,100 Descending Chicago Center
01:31PM 42.8717 -90.9072 76° East 444 511 21,000 -2,340 Descending Chicago Center
01:32PM 42.9053 -90.7194 76° East 430 495 18,400 -2,340 Descending Chicago Center
01:33PM 42.9319 -90.5656 77° East 422 486 16,200 -2,160 Descending Chicago Center
01:34PM 42.9589 -90.4175 76° East 407 468 14,000 -2,160 Descending Chicago Center
01:35PM 42.9839 -90.2689 77° East 405 466 11,800 -1,380 Descending Chicago Center
01:36PM 43.0094 -90.1269 76° East 393 452 11,200 -1,020 Descending Chicago Center
01:37PM 43.0336 -89.9731 78° East 353 406 9,800 -1,500 Descending Chicago Center
01:38PM 43.0553 -89.8492 76° East 346 398 8,100 -1,320 Descending Chicago Center
01:39PM 43.0794 -89.7306 74° East 329 379 7,100 -1,320 Descending Chicago Center
01:40PM 43.1075 -89.6247 70° East 304 350 5,400 -1,620 Descending Chicago Center
01:41PM 43.1342 -89.5144 72° East 303 349 3,800 -1,260 Descending Chicago Center
01:42PM 43.1978 -89.4200 47° Northeast 287 330 2,800 -600 Descending Chicago Center
01:43PM 43.2394 -89.3753 38° Northeast 234 269 2,600 -240 Descending Chicago Center
01:44PM 43.2147 -89.3392 133° Southeast 166 191 2,400 -420 Descending Chicago Center
01:45PM 43.1844 -89.3414 183° South 127 146 1,800 -540 Descending Chicago Center
01:46PM 43.1533 -89.3417 180° South 121 139 1,400 -420 Descending Chicago Center